This is the latest recevied weather packets stored in our database for station/object KA0WKG. If no packets are shown the sender has not sent any weather packets the latest 10 day(s).
| Time | Temp. | Humidity | Pressure | Rain* | Wind** | Luminosity | Snow |
|---|---|---|---|---|---|---|---|
| 1777352709 | 3.89° C | 82% | 1017.3 hPa | 0 mm | - | - | - |
| 1777350008 | 4.44° C | 81% | 1017.3 hPa | 0 mm | - | - | - |
| 1777348508 | 5° C | 80% | 1017.1 hPa | 0 mm | - | - | - |
| 1777343108 | 6.67° C | 71% | 1016.4 hPa | 0 mm | - | - | - |
| 1777338008 | 8.33° C | 62% | 1014.6 hPa | 0 mm | - | - | - |
| 1777337407 | 8.89° C | 61% | 1014.4 hPa | 0 mm | - | - | - |
| 1777337108 | 8.89° C | 61% | 1014.2 hPa | 0 mm | - | - | - |
| 1777335608 | 10° C | 58% | 1014.4 hPa | 0 mm | - | - | - |
| 1777335009 | 10.56° C | 56% | 1014.3 hPa | 0 mm | - | - | - |
| 1777332307 | 12.22° C | 52% | 1013.5 hPa | 0 mm | - | - | - |
| 1777331106 | 12.22° C | 50% | 1013 hPa | 0 mm | - | - | - |
| 1777329907 | 12.22° C | 49% | 1012.7 hPa | 0 mm | - | - | - |
| 1777329606 | 12.78° C | 50% | 1012.7 hPa | 0 mm | - | - | - |
| 1777327507 | 12.78° C | 49% | 1012.5 hPa | 0 mm | - | - | - |
| 1777325707 | 12.22° C | 50% | 1012.5 hPa | 0 mm | - | - | - |
| 1777318206 | 11.67° C | 57% | 1012.4 hPa | 0 mm | - | - | - |
| 1777314605 | 10.56° C | 61% | 1012.2 hPa | 0 mm | - | - | - |
| 1777312506 | 8.89° C | 67% | 1012.8 hPa | 0 mm | - | - | - |
| 1777311906 | 8.89° C | 68% | 1012.9 hPa | 0 mm | - | - | - |
| 1777307706 | 7.22° C | 76% | 1011.7 hPa | 0 mm | - | - | - |
| 1777306505 | 6.67° C | 81% | 1011.6 hPa | 0 mm | - | - | - |
| 1777305906 | 6.67° C | 83% | 1011.4 hPa | 0 mm | - | - | - |
| 1777301105 | 5° C | 89% | 1010.6 hPa | 0 mm | - | - | - |
| 1777297505 | 5° C | 93% | 1009.8 hPa | 0 mm | - | - | - |
| 1777295105 | 5° C | 96% | 1009.1 hPa | 0 mm | - | - | - |
* Rain latest hour (hover to see other rain measurements)
** Current wind speed in m/s (hover to see current wind gust speed)